sensor_id;sensor_type;location;lat;lon;timestamp;pressure;altitude;pressure_sealevel;temperature;humidity
71915;BME280;60387;49.994;14.660;2022-11-21T00:02:25;96735.50;;;4.78;68.30
71915;BME280;60387;49.994;14.660;2022-11-21T00:04:58;96727.44;;;4.78;68.30
71915;BME280;60387;49.994;14.660;2022-11-21T00:07:31;96730.63;;;4.80;68.17
71915;BME280;60387;49.994;14.660;2022-11-21T00:10:05;96727.09;;;4.85;68.65
71915;BME280;60387;49.994;14.660;2022-11-21T00:12:38;96723.38;;;4.81;68.75
71915;BME280;60387;49.994;14.660;2022-11-21T00:15:12;96722.63;;;4.75;69.30
71915;BME280;60387;49.994;14.660;2022-11-21T00:17:45;96710.03;;;4.76;69.04
71915;BME280;60387;49.994;14.660;2022-11-21T00:20:20;96727.94;;;4.80;68.75
71915;BME280;60387;49.994;14.660;2022-11-21T00:22:54;96716.06;;;4.86;68.75
71915;BME280;60387;49.994;14.660;2022-11-21T00:25:27;96718.53;;;4.83;68.92
71915;BME280;60387;49.994;14.660;2022-11-21T00:28:00;96701.63;;;4.82;68.79
71915;BME280;60387;49.994;14.660;2022-11-21T00:30:34;96701.84;;;4.86;68.93
71915;BME280;60387;49.994;14.660;2022-11-21T00:33:07;96701.56;;;4.87;68.74
71915;BME280;60387;49.994;14.660;2022-11-21T00:35:41;96713.81;;;4.93;68.93
71915;BME280;60387;49.994;14.660;2022-11-21T00:38:14;96696.84;;;4.98;68.97
71915;BME280;60387;49.994;14.660;2022-11-21T00:40:47;96693.59;;;5.01;68.90
71915;BME280;60387;49.994;14.660;2022-11-21T00:43:21;96695.09;;;5.07;68.62
71915;BME280;60387;49.994;14.660;2022-11-21T00:45:54;96690.25;;;5.09;68.78
71915;BME280;60387;49.994;14.660;2022-11-21T00:48:28;96688.00;;;5.16;68.65
71915;BME280;60387;49.994;14.660;2022-11-21T00:51:01;96686.31;;;5.20;68.84
71915;BME280;60387;49.994;14.660;2022-11-21T00:53:35;96686.53;;;5.23;69.00
71915;BME280;60387;49.994;14.660;2022-11-21T00:56:08;96679.25;;;5.24;69.42
71915;BME280;60387;49.994;14.660;2022-11-21T00:58:41;96695.81;;;5.31;69.19
71915;BME280;60387;49.994;14.660;2022-11-21T01:01:15;96692.56;;;5.34;69.24
71915;BME280;60387;49.994;14.660;2022-11-21T01:03:48;96683.91;;;5.37;69.11
71915;BME280;60387;49.994;14.660;2022-11-21T01:06:22;96672.28;;;5.41;69.14
71915;BME280;60387;49.994;14.660;2022-11-21T01:08:55;96683.22;;;5.45;68.60
71915;BME280;60387;49.994;14.660;2022-11-21T01:11:28;96672.50;;;5.45;68.60
71915;BME280;60387;49.994;14.660;2022-11-21T01:14:03;96671.13;;;5.47;68.59
71915;BME280;60387;49.994;14.660;2022-11-21T01:16:36;96662.16;;;5.52;68.59
71915;BME280;60387;49.994;14.660;2022-11-21T01:19:09;96653.63;;;5.50;68.65
71915;BME280;60387;49.994;14.660;2022-11-21T01:21:43;96649.03;;;5.50;68.17
71915;BME280;60387;49.994;14.660;2022-11-21T01:24:16;96641.25;;;5.49;68.23
71915;BME280;60387;49.994;14.660;2022-11-21T01:26:49;96632.13;;;5.50;68.19
71915;BME280;60387;49.994;14.660;2022-11-21T01:29:23;96635.31;;;5.52;68.13
71915;BME280;60387;49.994;14.660;2022-11-21T01:31:56;96637.50;;;5.50;68.02
71915;BME280;60387;49.994;14.660;2022-11-21T01:34:29;96630.50;;;5.49;68.26
71915;BME280;60387;49.994;14.660;2022-11-21T01:37:02;96622.78;;;5.47;68.23
71915;BME280;60387;49.994;14.660;2022-11-21T01:39:38;96627.34;;;5.47;68.16
71915;BME280;60387;49.994;14.660;2022-11-21T01:42:11;96615.81;;;5.46;68.20
71915;BME280;60387;49.994;14.660;2022-11-21T01:44:52;96627.84;;;5.49;68.50
71915;BME280;60387;49.994;14.660;2022-11-21T01:47:25;96621.97;;;5.47;68.30
71915;BME280;60387;49.994;14.660;2022-11-21T01:49:59;96611.22;;;5.47;68.48
71915;BME280;60387;49.994;14.660;2022-11-21T01:52:32;96611.72;;;5.49;68.47
71915;BME280;60387;49.994;14.660;2022-11-21T01:55:08;96614.41;;;5.49;68.44
71915;BME280;60387;49.994;14.660;2022-11-21T01:57:45;96606.88;;;5.51;68.54
71915;BME280;60387;49.994;14.660;2022-11-21T02:00:31;96610.06;;;5.53;68.24
71915;BME280;60387;49.994;14.660;2022-11-21T02:03:10;96617.00;;;5.54;68.63
71915;BME280;60387;49.994;14.660;2022-11-21T02:05:45;96605.78;;;5.52;68.59
71915;BME280;60387;49.994;14.660;2022-11-21T02:08:19;96599.31;;;5.53;68.39
71915;BME280;60387;49.994;14.660;2022-11-21T02:11:11;96593.66;;;5.54;68.59
71915;BME280;60387;49.994;14.660;2022-11-21T02:13:48;96602.78;;;5.53;68.55
71915;BME280;60387;49.994;14.660;2022-11-21T02:16:22;96588.34;;;5.49;68.07
71915;BME280;60387;49.994;14.660;2022-11-21T02:18:56;96586.47;;;5.50;68.34
71915;BME280;60387;49.994;14.660;2022-11-21T02:26:41;96577.91;;;5.48;68.12
71915;BME280;60387;49.994;14.660;2022-11-21T02:29:15;96584.84;;;5.49;68.76
71915;BME280;60387;49.994;14.660;2022-11-21T02:31:48;96590.16;;;5.54;68.62
71915;BME280;60387;49.994;14.660;2022-11-21T02:34:22;96586.38;;;5.55;68.64
71915;BME280;60387;49.994;14.660;2022-11-21T02:36:55;96575.03;;;5.58;68.58
71915;BME280;60387;49.994;14.660;2022-11-21T02:39:33;96567.50;;;5.60;68.78
71915;BME280;60387;49.994;14.660;2022-11-21T02:42:21;96570.06;;;5.65;68.63
71915;BME280;60387;49.994;14.660;2022-11-21T02:45:18;96569.50;;;5.68;69.15
71915;BME280;60387;49.994;14.660;2022-11-21T02:47:54;96562.69;;;5.70;69.41
71915;BME280;60387;49.994;14.660;2022-11-21T02:50:30;96560.53;;;5.72;69.29
71915;BME280;60387;49.994;14.660;2022-11-21T02:53:09;96553.75;;;5.75;69.01
71915;BME280;60387;49.994;14.660;2022-11-21T02:55:43;96557.97;;;5.81;68.98
71915;BME280;60387;49.994;14.660;2022-11-21T02:58:16;96556.88;;;5.82;68.96
71915;BME280;60387;49.994;14.660;2022-11-21T03:00:50;96558.44;;;5.83;68.84
71915;BME280;60387;49.994;14.660;2022-11-21T03:03:23;96554.88;;;5.87;68.89
71915;BME280;60387;49.994;14.660;2022-11-21T03:05:56;96553.81;;;5.88;68.79
71915;BME280;60387;49.994;14.660;2022-11-21T03:08:29;96557.75;;;5.91;68.71
71915;BME280;60387;49.994;14.660;2022-11-21T03:11:03;96549.69;;;5.91;68.79
71915;BME280;60387;49.994;14.660;2022-11-21T03:13:36;96542.63;;;5.95;69.01
71915;BME280;60387;49.994;14.660;2022-11-21T03:16:09;96544.22;;;5.96;69.04
71915;BME280;60387;49.994;14.660;2022-11-21T03:18:42;96561.66;;;5.98;68.93
71915;BME280;60387;49.994;14.660;2022-11-21T03:21:16;96546.63;;;5.97;69.05
71915;BME280;60387;49.994;14.660;2022-11-21T03:23:49;96541.41;;;6.01;68.88
71915;BME280;60387;49.994;14.660;2022-11-21T03:26:23;96534.44;;;6.00;69.19
71915;BME280;60387;49.994;14.660;2022-11-21T03:28:56;96544.50;;;6.08;68.98
71915;BME280;60387;49.994;14.660;2022-11-21T03:31:29;96541.03;;;6.07;68.73
71915;BME280;60387;49.994;14.660;2022-11-21T03:34:03;96535.66;;;6.07;68.81
71915;BME280;60387;49.994;14.660;2022-11-21T03:36:36;96527.88;;;6.06;68.91
71915;BME280;60387;49.994;14.660;2022-11-21T03:39:09;96526.97;;;6.10;68.72
71915;BME280;60387;49.994;14.660;2022-11-21T03:41:42;96513.34;;;6.07;68.65
71915;BME280;60387;49.994;14.660;2022-11-21T03:44:16;96518.72;;;6.07;68.87
71915;BME280;60387;49.994;14.660;2022-11-21T03:46:50;96505.28;;;6.07;69.04
71915;BME280;60387;49.994;14.660;2022-11-21T03:49:23;96507.69;;;6.08;68.76
71915;BME280;60387;49.994;14.660;2022-11-21T03:51:56;96514.34;;;6.11;68.70
71915;BME280;60387;49.994;14.660;2022-11-21T03:54:30;96503.28;;;6.12;68.94
71915;BME280;60387;49.994;14.660;2022-11-21T03:57:03;96495.22;;;6.12;68.48
71915;BME280;60387;49.994;14.660;2022-11-21T03:59:36;96491.25;;;6.10;68.85
71915;BME280;60387;49.994;14.660;2022-11-21T04:02:09;96475.13;;;6.10;68.74
71915;BME280;60387;49.994;14.660;2022-11-21T04:04:43;96472.72;;;6.08;69.09
71915;BME280;60387;49.994;14.660;2022-11-21T04:07:16;96472.94;;;6.12;68.64
71915;BME280;60387;49.994;14.660;2022-11-21T04:09:49;96474.31;;;6.09;68.97
71915;BME280;60387;49.994;14.660;2022-11-21T04:12:23;96467.53;;;6.12;68.81
71915;BME280;60387;49.994;14.660;2022-11-21T04:14:56;96474.50;;;6.13;68.76
71915;BME280;60387;49.994;14.660;2022-11-21T04:17:29;96472.59;;;6.13;68.96
71915;BME280;60387;49.994;14.660;2022-11-21T04:20:03;96471.22;;;6.16;68.66
71915;BME280;60387;49.994;14.660;2022-11-21T04:22:36;96476.28;;;6.17;68.38
71915;BME280;60387;49.994;14.660;2022-11-21T04:25:09;96477.06;;;6.18;68.78
71915;BME280;60387;49.994;14.660;2022-11-21T04:27:43;96480.84;;;6.17;68.53
71915;BME280;60387;49.994;14.660;2022-11-21T04:30:16;96474.69;;;6.16;68.50
71915;BME280;60387;49.994;14.660;2022-11-21T04:32:50;96482.44;;;6.18;68.92
71915;BME280;60387;49.994;14.660;2022-11-21T04:35:24;96479.16;;;6.21;68.80
71915;BME280;60387;49.994;14.660;2022-11-21T04:37:57;96476.19;;;6.22;68.60
71915;BME280;60387;49.994;14.660;2022-11-21T04:40:31;96479.66;;;6.22;68.58
71915;BME280;60387;49.994;14.660;2022-11-21T04:43:04;96475.09;;;6.23;68.72
71915;BME280;60387;49.994;14.660;2022-11-21T04:45:38;96469.53;;;6.20;68.59
71915;BME280;60387;49.994;14.660;2022-11-21T04:48:11;96470.00;;;6.22;68.29
71915;BME280;60387;49.994;14.660;2022-11-21T04:50:44;96460.94;;;6.18;68.40
71915;BME280;60387;49.994;14.660;2022-11-21T04:53:18;96459.34;;;6.17;68.75
71915;BME280;60387;49.994;14.660;2022-11-21T04:55:51;96455.88;;;6.16;68.76
71915;BME280;60387;49.994;14.660;2022-11-21T04:58:24;96446.22;;;6.15;68.57
71915;BME280;60387;49.994;14.660;2022-11-21T05:01:04;96445.91;;;6.17;68.26
71915;BME280;60387;49.994;14.660;2022-11-21T05:03:37;96434.47;;;6.11;68.50
71915;BME280;60387;49.994;14.660;2022-11-21T05:06:10;96438.94;;;6.16;68.24
71915;BME280;60387;49.994;14.660;2022-11-21T05:08:44;96439.28;;;6.14;68.21
71915;BME280;60387;49.994;14.660;2022-11-21T05:11:17;96433.91;;;6.14;68.23
71915;BME280;60387;49.994;14.660;2022-11-21T05:13:54;96429.78;;;6.17;68.34
71915;BME280;60387;49.994;14.660;2022-11-21T05:16:27;96432.47;;;6.17;68.56
71915;BME280;60387;49.994;14.660;2022-11-21T05:19:00;96413.78;;;6.12;68.18
71915;BME280;60387;49.994;14.660;2022-11-21T05:21:33;96425.41;;;6.21;68.46
71915;BME280;60387;49.994;14.660;2022-11-21T05:24:07;96429.69;;;6.22;68.81
71915;BME280;60387;49.994;14.660;2022-11-21T05:26:40;96419.53;;;6.19;68.56
71915;BME280;60387;49.994;14.660;2022-11-21T05:29:13;96432.56;;;6.25;68.54
71915;BME280;60387;49.994;14.660;2022-11-21T05:31:47;96423.19;;;6.22;68.41
71915;BME280;60387;49.994;14.660;2022-11-21T05:34:20;96418.31;;;6.24;68.32
71915;BME280;60387;49.994;14.660;2022-11-21T05:36:53;96429.06;;;6.24;68.68
71915;BME280;60387;49.994;14.660;2022-11-21T05:39:27;96429.06;;;6.24;68.64
71915;BME280;60387;49.994;14.660;2022-11-21T05:42:00;96420.22;;;6.24;69.01
71915;BME280;60387;49.994;14.660;2022-11-21T05:44:33;96415.41;;;6.21;68.55
71915;BME280;60387;49.994;14.660;2022-11-21T05:47:06;96410.22;;;6.24;68.72
71915;BME280;60387;49.994;14.660;2022-11-21T05:49:40;96411.22;;;6.28;68.54
71915;BME280;60387;49.994;14.660;2022-11-21T05:52:13;96419.47;;;6.32;68.80
71915;BME280;60387;49.994;14.660;2022-11-21T05:54:46;96414.41;;;6.30;68.88
71915;BME280;60387;49.994;14.660;2022-11-21T05:57:19;96407.91;;;6.31;69.03
71915;BME280;60387;49.994;14.660;2022-11-21T05:59:53;96403.84;;;6.34;68.64
71915;BME280;60387;49.994;14.660;2022-11-21T06:02:26;96404.59;;;6.34;68.65
71915;BME280;60387;49.994;14.660;2022-11-21T06:04:59;96402.44;;;6.36;68.54
71915;BME280;60387;49.994;14.660;2022-11-21T06:07:32;96408.28;;;6.38;68.58
71915;BME280;60387;49.994;14.660;2022-11-21T06:10:06;96408.78;;;6.40;68.62
71915;BME280;60387;49.994;14.660;2022-11-21T06:12:39;96412.09;;;6.37;68.74
71915;BME280;60387;49.994;14.660;2022-11-21T06:15:12;96414.78;;;6.37;68.79
71915;BME280;60387;49.994;14.660;2022-11-21T06:17:46;96409.88;;;6.39;68.90
71915;BME280;60387;49.994;14.660;2022-11-21T06:20:19;96413.84;;;6.42;68.50
71915;BME280;60387;49.994;14.660;2022-11-21T06:22:52;96422.09;;;6.45;69.08
71915;BME280;60387;49.994;14.660;2022-11-21T06:25:25;96409.44;;;6.46;68.80
71915;BME280;60387;49.994;14.660;2022-11-21T06:27:59;96421.47;;;6.48;68.87
71915;BME280;60387;49.994;14.660;2022-11-21T06:30:33;96412.44;;;6.44;68.81
71915;BME280;60387;49.994;14.660;2022-11-21T06:33:06;96419.09;;;6.47;69.06
71915;BME280;60387;49.994;14.660;2022-11-21T06:35:39;96413.41;;;6.48;68.96
71915;BME280;60387;49.994;14.660;2022-11-21T06:38:12;96415.81;;;6.50;68.87
71915;BME280;60387;49.994;14.660;2022-11-21T06:40:46;96409.13;;;6.47;69.02
71915;BME280;60387;49.994;14.660;2022-11-21T06:43:19;96405.16;;;6.45;69.09
71915;BME280;60387;49.994;14.660;2022-11-21T06:45:54;96406.63;;;6.51;68.93
71915;BME280;60387;49.994;14.660;2022-11-21T06:48:28;96407.41;;;6.51;68.75
71915;BME280;60387;49.994;14.660;2022-11-21T06:51:05;96409.03;;;6.52;68.92
71915;BME280;60387;49.994;14.660;2022-11-21T06:53:39;96403.81;;;6.56;68.40
71915;BME280;60387;49.994;14.660;2022-11-21T06:56:13;96398.75;;;6.54;68.54
71915;BME280;60387;49.994;14.660;2022-11-21T06:58:47;96398.13;;;6.57;68.35
71915;BME280;60387;49.994;14.660;2022-11-21T07:01:20;96407.78;;;6.58;68.59
71915;BME280;60387;49.994;14.660;2022-11-21T07:03:54;96403.97;;;6.59;68.55
71915;BME280;60387;49.994;14.660;2022-11-21T07:06:27;96410.34;;;6.63;68.47
71915;BME280;60387;49.994;14.660;2022-11-21T07:09:00;96402.75;;;6.65;68.58
71915;BME280;60387;49.994;14.660;2022-11-21T07:11:34;96400.38;;;6.64;68.41
71915;BME280;60387;49.994;14.660;2022-11-21T07:14:07;96408.03;;;6.70;68.37
71915;BME280;60387;49.994;14.660;2022-11-21T07:16:40;96403.13;;;6.72;68.29
71915;BME280;60387;49.994;14.660;2022-11-21T07:19:13;96408.50;;;6.72;68.00
71915;BME280;60387;49.994;14.660;2022-11-21T07:21:47;96407.88;;;6.75;68.06
71915;BME280;60387;49.994;14.660;2022-11-21T07:24:20;96411.56;;;6.79;68.25
71915;BME280;60387;49.994;14.660;2022-11-21T07:26:53;96417.28;;;6.86;68.04
71915;BME280;60387;49.994;14.660;2022-11-21T07:29:27;96412.88;;;6.90;67.96
71915;BME280;60387;49.994;14.660;2022-11-21T07:32:00;96423.00;;;6.93;68.07
71915;BME280;60387;49.994;14.660;2022-11-21T07:34:33;96417.03;;;6.96;67.71
71915;BME280;60387;49.994;14.660;2022-11-21T07:37:06;96423.06;;;7.02;67.54
71915;BME280;60387;49.994;14.660;2022-11-21T07:39:39;96423.84;;;7.02;67.61
71915;BME280;60387;49.994;14.660;2022-11-21T07:42:13;96427.53;;;7.06;67.49
71915;BME280;60387;49.994;14.660;2022-11-21T07:44:46;96429.59;;;7.09;67.13
71915;BME280;60387;49.994;14.660;2022-11-21T07:47:19;96428.34;;;7.15;67.06
71915;BME280;60387;49.994;14.660;2022-11-21T07:49:52;96427.88;;;7.22;67.50
71915;BME280;60387;49.994;14.660;2022-11-21T07:52:26;96432.03;;;7.28;67.01
71915;BME280;60387;49.994;14.660;2022-11-21T07:54:59;96430.81;;;7.34;67.11
71915;BME280;60387;49.994;14.660;2022-11-21T07:57:33;96424.63;;;7.33;66.89
71915;BME280;60387;49.994;14.660;2022-11-21T08:00:07;96434.78;;;7.45;66.73
71915;BME280;60387;49.994;14.660;2022-11-21T08:02:40;96424.50;;;7.47;66.91
71915;BME280;60387;49.994;14.660;2022-11-21T08:05:13;96431.97;;;7.58;66.60
71915;BME280;60387;49.994;14.660;2022-11-21T08:07:46;96432.63;;;7.64;66.72
71915;BME280;60387;49.994;14.660;2022-11-21T08:10:20;96431.22;;;7.66;66.36
71915;BME280;60387;49.994;14.660;2022-11-21T08:12:53;96439.47;;;7.70;66.56
71915;BME280;60387;49.994;14.660;2022-11-21T08:15:26;96436.31;;;7.76;66.20
71915;BME280;60387;49.994;14.660;2022-11-21T08:18:10;96419.19;;;7.72;66.50
71915;BME280;60387;49.994;14.660;2022-11-21T08:20:44;96443.31;;;7.86;65.76
71915;BME280;60387;49.994;14.660;2022-11-21T08:23:17;96441.72;;;7.85;66.05
71915;BME280;60387;49.994;14.660;2022-11-21T08:25:50;96449.66;;;7.90;66.16
71915;BME280;60387;49.994;14.660;2022-11-21T08:28:24;96456.19;;;7.97;65.80
71915;BME280;60387;49.994;14.660;2022-11-21T08:30:57;96445.69;;;8.04;65.47
71915;BME280;60387;49.994;14.660;2022-11-21T08:33:31;96450.47;;;8.07;65.22
71915;BME280;60387;49.994;14.660;2022-11-21T08:36:05;96444.28;;;8.07;64.89
71915;BME280;60387;49.994;14.660;2022-11-21T08:38:38;96446.50;;;8.05;65.48
71915;BME280;60387;49.994;14.660;2022-11-21T08:41:12;96460.16;;;8.17;64.67
71915;BME280;60387;49.994;14.660;2022-11-21T08:43:45;96460.97;;;8.17;65.08
71915;BME280;60387;49.994;14.660;2022-11-21T08:46:18;96462.09;;;8.25;64.81
71915;BME280;60387;49.994;14.660;2022-11-21T08:48:53;96449.88;;;8.19;64.93
71915;BME280;60387;49.994;14.660;2022-11-21T08:51:26;96468.13;;;8.30;64.67
71915;BME280;60387;49.994;14.660;2022-11-21T08:54:00;96464.00;;;8.33;64.67
71915;BME280;60387;49.994;14.660;2022-11-21T08:56:34;96474.81;;;8.41;64.67
71915;BME280;60387;49.994;14.660;2022-11-21T08:59:07;96473.06;;;8.45;64.61
71915;BME280;60387;49.994;14.660;2022-11-21T09:01:40;96483.22;;;8.48;64.75
71915;BME280;60387;49.994;14.660;2022-11-21T09:04:14;96479.41;;;8.49;64.34
71915;BME280;60387;49.994;14.660;2022-11-21T09:06:47;96487.00;;;8.47;64.81
71915;BME280;60387;49.994;14.660;2022-11-21T09:09:20;96473.22;;;8.40;64.71
71915;BME280;60387;49.994;14.660;2022-11-21T09:11:53;96481.00;;;8.50;64.71
71915;BME280;60387;49.994;14.660;2022-11-21T09:14:26;96491.00;;;8.58;64.84
71915;BME280;60387;49.994;14.660;2022-11-21T09:17:00;96480.22;;;8.58;64.62
71915;BME280;60387;49.994;14.660;2022-11-21T09:19:33;96489.25;;;8.62;64.50
71915;BME280;60387;49.994;14.660;2022-11-21T09:22:06;96486.53;;;8.62;64.27
71915;BME280;60387;49.994;14.660;2022-11-21T09:24:40;96485.59;;;8.58;63.69
71915;BME280;60387;49.994;14.660;2022-11-21T09:27:13;96493.22;;;8.65;63.05
71915;BME280;60387;49.994;14.660;2022-11-21T09:29:46;96488.31;;;8.58;63.40
71915;BME280;60387;49.994;14.660;2022-11-21T09:32:19;96493.88;;;8.62;63.54
71915;BME280;60387;49.994;14.660;2022-11-21T09:34:53;96495.59;;;8.66;64.10
71915;BME280;60387;49.994;14.660;2022-11-21T09:37:26;96497.97;;;8.68;64.19
71915;BME280;60387;49.994;14.660;2022-11-21T09:40:02;96496.38;;;8.67;64.33
71915;BME280;60387;49.994;14.660;2022-11-21T09:48:22;96511.00;;;8.74;64.09
71915;BME280;60387;49.994;14.660;2022-11-21T09:51:03;96511.28;;;8.81;63.71
71915;BME280;60387;49.994;14.660;2022-11-21T09:53:50;96516.53;;;8.86;64.18
71915;BME280;60387;49.994;14.660;2022-11-21T09:56:30;96510.19;;;8.91;64.17
71915;BME280;60387;49.994;14.660;2022-11-21T09:59:34;96513.03;;;8.94;64.13
71915;BME280;60387;49.994;14.660;2022-11-21T10:02:19;96508.09;;;8.96;63.97
71915;BME280;60387;49.994;14.660;2022-11-21T10:04:53;96518.91;;;8.96;63.95
71915;BME280;60387;49.994;14.660;2022-11-21T10:07:29;96527.97;;;9.00;64.02
71915;BME280;60387;49.994;14.660;2022-11-21T10:16:14;96529.88;;;9.08;63.73
71915;BME280;60387;49.994;14.660;2022-11-21T10:18:59;96530.34;;;9.10;63.64
71915;BME280;60387;49.994;14.660;2022-11-21T10:22:01;96530.81;;;9.12;63.19
71915;BME280;60387;49.994;14.660;2022-11-21T10:24:58;96525.88;;;9.14;64.09
71915;BME280;60387;49.994;14.660;2022-11-21T10:27:40;96520.97;;;9.16;63.54
71915;BME280;60387;49.994;14.660;2022-11-21T10:30:18;96530.31;;;9.19;63.70
71915;BME280;60387;49.994;14.660;2022-11-21T10:32:55;96518.72;;;9.18;63.42
71915;BME280;60387;49.994;14.660;2022-11-21T10:35:43;96521.91;;;9.20;63.19
71915;BME280;60387;49.994;14.660;2022-11-21T10:38:21;96535.88;;;9.22;63.41
71915;BME280;60387;49.994;14.660;2022-11-21T10:41:05;96533.63;;;9.24;63.33
71915;BME280;60387;49.994;14.660;2022-11-21T10:46:18;96537.94;;;9.25;62.95
71915;BME280;60387;49.994;14.660;2022-11-21T10:49:17;96545.88;;;9.30;63.04
71915;BME280;60387;49.994;14.660;2022-11-21T10:52:06;96535.53;;;9.32;63.36
71915;BME280;60387;49.994;14.660;2022-11-21T10:55:04;96546.84;;;9.34;63.28
71915;BME280;60387;49.994;14.660;2022-11-21T10:57:49;96541.88;;;9.36;62.77
71915;BME280;60387;49.994;14.660;2022-11-21T11:00:24;96540.47;;;9.30;62.45
71915;BME280;60387;49.994;14.660;2022-11-21T11:03:01;96547.00;;;9.29;62.63
71915;BME280;60387;49.994;14.660;2022-11-21T11:05:36;96557.47;;;9.22;62.84
71915;BME280;60387;49.994;14.660;2022-11-21T11:08:12;96560.38;;;9.17;62.75
71915;BME280;60387;49.994;14.660;2022-11-21T11:14:03;96569.91;;;9.06;62.57
71915;BME280;60387;49.994;14.660;2022-11-21T11:16:42;96568.00;;;8.98;63.06
71915;BME280;60387;49.994;14.660;2022-11-21T11:19:20;96573.72;;;8.88;63.68
71915;BME280;60387;49.994;14.660;2022-11-21T11:21:56;96580.56;;;8.77;63.97
71915;BME280;60387;49.994;14.660;2022-11-21T11:24:29;96579.28;;;8.75;63.79
71915;BME280;60387;49.994;14.660;2022-11-21T11:27:02;96580.88;;;8.67;63.96
71915;BME280;60387;49.994;14.660;2022-11-21T11:29:48;96576.88;;;8.56;64.60
71915;BME280;60387;49.994;14.660;2022-11-21T11:32:22;96579.91;;;8.55;64.37
71915;BME280;60387;49.994;14.660;2022-11-21T11:35:00;96586.56;;;8.49;64.66
71915;BME280;60387;49.994;14.660;2022-11-21T11:37:42;96580.50;;;8.43;65.17
71915;BME280;60387;49.994;14.660;2022-11-21T11:40:27;96581.31;;;8.44;65.11
71915;BME280;60387;49.994;14.660;2022-11-21T11:43:12;96577.34;;;8.50;65.28
71915;BME280;60387;49.994;14.660;2022-11-21T11:48:44;96583.53;;;8.50;65.29
71915;BME280;60387;49.994;14.660;2022-11-21T11:51:21;96587.03;;;8.51;65.29
71915;BME280;60387;49.994;14.660;2022-11-21T11:54:01;96592.75;;;8.49;64.77
71915;BME280;60387;49.994;14.660;2022-11-21T11:56:36;96584.03;;;8.44;64.99
71915;BME280;60387;49.994;14.660;2022-11-21T12:04:47;96595.13;;;8.51;65.22
71915;BME280;60387;49.994;14.660;2022-11-21T12:07:31;96598.47;;;8.48;65.41
71915;BME280;60387;49.994;14.660;2022-11-21T12:10:22;96597.00;;;8.42;65.02
71915;BME280;60387;49.994;14.660;2022-11-21T12:13:10;96601.75;;;8.36;64.94
71915;BME280;60387;49.994;14.660;2022-11-21T12:15:46;96598.72;;;8.29;65.22
71915;BME280;60387;49.994;14.660;2022-11-21T12:18:35;96588.41;;;8.23;64.88
71915;BME280;60387;49.994;14.660;2022-11-21T12:21:13;96599.50;;;8.21;65.18
71915;BME280;60387;49.994;14.660;2022-11-21T12:23:51;96608.56;;;8.25;65.28
71915;BME280;60387;49.994;14.660;2022-11-21T12:26:50;96607.44;;;8.26;65.08
71915;BME280;60387;49.994;14.660;2022-11-21T12:43:38;96604.66;;;8.09;64.57
71915;BME280;60387;49.994;14.660;2022-11-21T12:49:49;96602.38;;;7.94;63.78
71915;BME280;60387;49.994;14.660;2022-11-21T12:52:30;96603.31;;;7.90;64.13
71915;BME280;60387;49.994;14.660;2022-11-21T12:55:12;96609.66;;;7.85;64.42
71915;BME280;60387;49.994;14.660;2022-11-21T13:01:05;96610.28;;;7.82;64.62
71915;BME280;60387;49.994;14.660;2022-11-21T13:04:10;96607.56;;;7.82;64.44
71915;BME280;60387;49.994;14.660;2022-11-21T13:06:47;96607.25;;;7.84;64.43
71915;BME280;60387;49.994;14.660;2022-11-21T13:09:23;96604.88;;;7.82;64.50
71915;BME280;60387;49.994;14.660;2022-11-21T13:12:01;96612.16;;;7.82;64.09
71915;BME280;60387;49.994;14.660;2022-11-21T13:14:43;96614.06;;;7.81;63.72
71915;BME280;60387;49.994;14.660;2022-11-21T13:23:00;96618.03;;;7.84;64.53
71915;BME280;60387;49.994;14.660;2022-11-21T13:25:35;96625.81;;;7.85;64.60
71915;BME280;60387;49.994;14.660;2022-11-21T13:28:34;96609.66;;;7.85;64.25
71915;BME280;60387;49.994;14.660;2022-11-21T13:31:30;96618.03;;;7.84;63.77
71915;BME280;60387;49.994;14.660;2022-11-21T13:34:04;96607.88;;;7.81;64.19
71915;BME280;60387;49.994;14.660;2022-11-21T13:36:52;96598.19;;;7.71;64.09
71915;BME280;60387;49.994;14.660;2022-11-21T13:39:26;96611.97;;;7.78;63.99
71915;BME280;60387;49.994;14.660;2022-11-21T13:42:03;96614.50;;;7.75;63.84
71915;BME280;60387;49.994;14.660;2022-11-21T13:44:40;96612.59;;;7.67;64.24
71915;BME280;60387;49.994;14.660;2022-11-21T13:58:38;96628.94;;;7.48;64.23
71915;BME280;60387;49.994;14.660;2022-11-21T14:07:25;96614.75;;;7.34;64.43
71915;BME280;60387;49.994;14.660;2022-11-21T14:10:02;96617.44;;;7.34;64.56
71915;BME280;60387;49.994;14.660;2022-11-21T14:12:38;96619.47;;;7.29;63.99
71915;BME280;60387;49.994;14.660;2022-11-21T14:15:18;96616.78;;;7.29;64.25
71915;BME280;60387;49.994;14.660;2022-11-21T14:17:56;96616.41;;;7.22;64.00
71915;BME280;60387;49.994;14.660;2022-11-21T14:20:35;96626.41;;;7.21;64.50
71915;BME280;60387;49.994;14.660;2022-11-21T14:23:20;96610.66;;;7.15;64.28
71915;BME280;60387;49.994;14.660;2022-11-21T14:25:57;96620.00;;;7.17;64.34
71915;BME280;60387;49.994;14.660;2022-11-21T14:28:34;96618.25;;;7.13;64.40
71915;BME280;60387;49.994;14.660;2022-11-21T14:31:09;96618.44;;;7.16;64.50
71915;BME280;60387;49.994;14.660;2022-11-21T14:33:44;96613.03;;;7.16;64.50
71915;BME280;60387;49.994;14.660;2022-11-21T14:36:23;96614.63;;;7.17;64.74
71915;BME280;60387;49.994;14.660;2022-11-21T14:38:59;96611.16;;;7.17;64.37
71915;BME280;60387;49.994;14.660;2022-11-21T14:41:34;96612.25;;;7.16;64.39
71915;BME280;60387;49.994;14.660;2022-11-21T14:46:43;96606.06;;;7.15;64.61
71915;BME280;60387;49.994;14.660;2022-11-21T14:49:21;96582.63;;;6.94;64.46
71915;BME280;60387;49.994;14.660;2022-11-21T14:54:52;96604.28;;;7.11;64.18
71915;BME280;60387;49.994;14.660;2022-11-21T14:57:29;96602.22;;;7.08;64.01
71915;BME280;60387;49.994;14.660;2022-11-21T15:00:05;96615.97;;;7.06;64.25
71915;BME280;60387;49.994;14.660;2022-11-21T15:02:39;96596.13;;;7.02;64.76
71915;BME280;60387;49.994;14.660;2022-11-21T15:05:14;96603.13;;;7.03;64.71
71915;BME280;60387;49.994;14.660;2022-11-21T15:07:47;96597.88;;;6.98;64.33